Time;durP1;ratioP1;P1;durP2;ratioP2;P2;SDS_P1;SDS_P2;PMS_P1;PMS_P2;Temp;Humidity;BMP_temperature;BMP_pressure;BME280_temperature;BME280_humidity;BME280_pressure;Samples;Min_cycle;Max_cycle;Signal;HPM_P1;HPM_P2
2022/02/16 00:03:49;;;;;;;0.83;0.63;;;;;;;;;;10481497;28;19951;-76
2022/02/16 00:08:54;;;;;;;3.60;1.83;;;;;;;;;;10478042;28;20032;-76
2022/02/16 00:13:57;;;;;;;2.13;0.93;;;;;;;;;;10471585;28;20591;-77
2022/02/16 00:19:00;;;;;;;1.13;0.77;;;;;;;;;;10485885;28;20045;-77
2022/02/16 00:24:05;;;;;;;0.73;0.63;;;;;;;;;;10488915;28;20743;-76
2022/02/16 00:29:11;;;;;;;3.10;1.00;;;;;;;;;;10468673;28;20032;-75
2022/02/16 00:34:14;;;;;;;1.47;0.97;;;;;;;;;;10473520;28;20056;-76
2022/02/16 00:39:18;;;;;;;1.30;0.80;;;;;;;;;;10458293;28;20040;-76
2022/02/16 00:44:21;;;;;;;2.70;1.33;;;;;;;;;;10483197;28;20033;-76
2022/02/16 00:49:25;;;;;;;2.63;1.25;;;;;;;;;;10488723;28;20098;-76
2022/02/16 00:54:29;;;;;;;0.60;0.43;;;;;;;;;;10470374;28;20044;-76
2022/02/16 00:59:33;;;;;;;3.00;1.10;;;;;;;;;;10475516;28;20055;-74
2022/02/16 01:04:36;;;;;;;0.97;0.57;;;;;;;;;;10472031;28;20037;-76
2022/02/16 01:09:40;;;;;;;0.73;0.60;;;;;;;;;;10461096;28;20041;-77
2022/02/16 01:14:43;;;;;;;;;;;;;;;;;;10465527;28;20043;-77
2022/02/16 01:19:47;;;;;;;0.23;0.23;;;;;;;;;;10462553;28;19966;-77
2022/02/16 01:24:52;;;;;;;1.27;0.50;;;;;;;;;;10455785;28;20041;-77
2022/02/16 01:29:55;;;;;;;0.10;0.10;;;;;;;;;;10472556;28;20039;-76
2022/02/16 01:34:58;;;;;;;0.50;0.30;;;;;;;;;;10463748;28;20110;-77
2022/02/16 01:40:03;;;;;;;0.65;0.52;;;;;;;;;;10474122;28;20060;-77
2022/02/16 01:45:09;;;;;;;2.87;0.80;;;;;;;;;;10455530;28;20044;-76
2022/02/16 01:50:12;;;;;;;2.00;0.40;;;;;;;;;;10480336;28;20041;-76
2022/02/16 01:55:17;;;;;;;0.67;0.47;;;;;;;;;;10482102;28;20040;-77
2022/02/16 02:00:29;;;;;;;0.90;0.20;;;;;;;;;;10459680;28;20028;-76
2022/02/16 02:05:33;;;;;;;0.73;0.20;;;;;;;;;;10483529;28;20459;-80
2022/02/16 02:10:38;;;;;;;0.43;0.22;;;;;;;;;;10472379;28;20040;-75
2022/02/16 02:15:42;;;;;;;0.30;0.23;;;;;;;;;;10469005;28;20042;-75
2022/02/16 02:20:57;;;;;;;0.10;0.10;;;;;;;;;;10463626;28;20129;-75
2022/02/16 02:26:00;;;;;;;0.33;0.17;;;;;;;;;;10462615;28;20103;-75
2022/02/16 02:31:03;;;;;;;0.63;0.57;;;;;;;;;;10478489;28;20059;-76
2022/02/16 02:36:08;;;;;;;0.30;0.20;;;;;;;;;;10467067;28;20041;-77
2022/02/16 02:41:11;;;;;;;0.93;0.60;;;;;;;;;;10491619;28;20037;-75
2022/02/16 02:46:15;;;;;;;0.77;0.70;;;;;;;;;;10484352;28;20040;-77
2022/02/16 02:51:20;;;;;;;1.15;0.80;;;;;;;;;;10490360;28;20064;-77
2022/02/16 02:56:24;;;;;;;1.80;0.67;;;;;;;;;;10486678;28;20426;-76
2022/02/16 03:01:27;;;;;;;0.85;0.40;;;;;;;;;;10464894;28;20404;-77
2022/02/16 03:06:32;;;;;;;1.17;0.60;;;;;;;;;;10464665;28;20102;-76
2022/02/16 03:11:36;;;;;;;1.97;1.20;;;;;;;;;;10462135;28;20094;-75
2022/02/16 03:16:39;;;;;;;1.97;0.73;;;;;;;;;;10472055;28;20078;-76
2022/02/16 03:21:44;;;;;;;2.90;1.00;;;;;;;;;;10473825;28;20411;-76
2022/02/16 03:26:47;;;;;;;2.13;1.10;;;;;;;;;;10467778;28;20400;-76
2022/02/16 03:31:50;;;;;;;3.43;1.33;;;;;;;;;;10479336;28;20037;-76
2022/02/16 03:36:54;;;;;;;0.70;0.57;;;;;;;;;;10489943;28;20463;-75
2022/02/16 03:41:58;;;;;;;1.37;0.80;;;;;;;;;;10478480;28;20290;-76
2022/02/16 03:47:00;;;;;;;1.90;1.07;;;;;;;;;;10481243;28;20048;-76
2022/02/16 03:52:05;;;;;;;1.13;0.67;;;;;;;;;;10495548;28;20138;-75
2022/02/16 03:57:09;;;;;;;0.73;0.50;;;;;;;;;;10479206;28;20037;-76
2022/02/16 04:02:13;;;;;;;1.15;1.02;;;;;;;;;;10495762;28;20044;-78
2022/02/16 04:07:21;;;;;;;0.70;0.60;;;;;;;;;;10471913;28;20044;-76
2022/02/16 04:12:24;;;;;;;0.93;0.40;;;;;;;;;;10477094;28;20036;-76
2022/02/16 04:17:27;;;;;;;1.13;0.53;;;;;;;;;;10494642;28;20048;-75
2022/02/16 04:22:32;;;;;;;0.63;0.50;;;;;;;;;;10487109;28;20048;-77
2022/02/16 04:27:36;;;;;;;1.90;0.80;;;;;;;;;;10479367;28;20041;-75
2022/02/16 04:32:39;;;;;;;1.60;0.70;;;;;;;;;;10479745;28;20040;-76
2022/02/16 04:37:44;;;;;;;1.90;1.00;;;;;;;;;;10494311;28;20075;-77
2022/02/16 04:42:47;;;;;;;1.40;0.80;;;;;;;;;;10501416;28;20037;-77
2022/02/16 04:47:50;;;;;;;0.57;0.57;;;;;;;;;;10485321;28;20726;-74
2022/02/16 04:52:55;;;;;;;0.87;0.60;;;;;;;;;;10480782;28;20047;-76
2022/02/16 04:57:58;;;;;;;1.43;0.90;;;;;;;;;;10478970;28;20132;-75
2022/02/16 05:03:01;;;;;;;2.60;0.70;;;;;;;;;;10495301;28;20373;-77
2022/02/16 05:08:08;;;;;;;1.70;0.33;;;;;;;;;;10493453;28;20037;-78
2022/02/16 05:13:11;;;;;;;1.10;0.60;;;;;;;;;;10492722;28;20093;-76
2022/02/16 05:18:14;;;;;;;0.28;0.17;;;;;;;;;;10484592;28;20372;-76
2022/02/16 05:23:19;;;;;;;2.10;0.70;;;;;;;;;;10494278;28;20036;-76
2022/02/16 05:28:22;;;;;;;1.53;0.50;;;;;;;;;;10498320;28;20036;-77
2022/02/16 05:33:26;;;;;;;0.10;0.10;;;;;;;;;;10501522;28;20062;-76
2022/02/16 05:38:30;;;;;;;0.28;0.28;;;;;;;;;;10485269;28;20053;-76
2022/02/16 05:43:33;;;;;;;0.57;0.40;;;;;;;;;;10511252;28;20055;-75
2022/02/16 05:48:36;;;;;;;1.40;0.80;;;;;;;;;;10490893;28;20044;-77
2022/02/16 05:53:40;;;;;;;3.50;0.60;;;;;;;;;;10488761;28;20557;-75
2022/02/16 05:58:46;;;;;;;0.80;0.53;;;;;;;;;;10505123;28;20683;-78
2022/02/16 06:03:50;;;;;;;2.17;0.90;;;;;;;;;;10517663;28;20477;-75
2022/02/16 06:08:54;;;;;;;0.20;0.20;;;;;;;;;;10503283;28;20046;-74
2022/02/16 06:13:57;;;;;;;;;;;;;;;;;;10482953;28;20032;-75
2022/02/16 06:19:00;;;;;;;0.60;0.60;;;;;;;;;;10497558;28;20350;-74
2022/02/16 06:24:06;;;;;;;0.77;0.60;;;;;;;;;;10508641;28;20128;-77
2022/02/16 06:29:09;;;;;;;0.80;0.50;;;;;;;;;;10504636;28;20052;-75
2022/02/16 06:34:11;;;;;;;1.70;0.77;;;;;;;;;;10505475;28;20090;-75
2022/02/16 06:39:18;;;;;;;0.87;0.70;;;;;;;;;;10501087;28;20042;-75
2022/02/16 06:44:21;;;;;;;;;;;;;;;;;;10481469;28;20104;-76
2022/02/16 06:49:24;;;;;;;1.43;0.80;;;;;;;;;;10511078;28;20020;-77
2022/02/16 06:54:28;;;;;;;1.93;0.60;;;;;;;;;;10502367;28;20107;-76
2022/02/16 06:59:31;;;;;;;3.80;1.03;;;;;;;;;;10482505;28;20071;-76
2022/02/16 07:04:34;;;;;;;1.30;0.67;;;;;;;;;;10507439;28;20040;-76
2022/02/16 07:09:38;;;;;;;0.43;0.40;;;;;;;;;;10490338;28;20217;-79
2022/02/16 07:14:41;;;;;;;0.90;0.33;;;;;;;;;;10515378;28;20048;-76
2022/02/16 07:19:44;;;;;;;0.73;0.40;;;;;;;;;;10482537;28;20044;-75
2022/02/16 07:24:48;;;;;;;1.23;0.50;;;;;;;;;;10486533;28;20051;-75
2022/02/16 07:29:51;;;;;;;;;;;;;;;;;;10472785;28;20044;-75
2022/02/16 07:34:54;;;;;;;2.20;0.80;;;;;;;;;;10499905;28;19920;-76
2022/02/16 07:39:59;;;;;;;0.50;0.50;;;;;;;;;;10480961;28;20048;-76
2022/02/16 07:45:06;;;;;;;0.95;0.70;;;;;;;;;;10500028;28;20063;-76
2022/02/16 07:50:10;;;;;;;6.88;1.08;;;;;;;;;;10480226;28;20112;-76
2022/02/16 07:55:14;;;;;;;0.77;0.60;;;;;;;;;;10483410;28;20039;-76
2022/02/16 08:00:17;;;;;;;;;;;;;;;;;;10470000;28;20051;-75
2022/02/16 08:05:19;;;;;;;0.93;0.45;;;;;;;;;;10485343;28;19965;-75
2022/02/16 08:10:24;;;;;;;2.38;0.60;;;;;;;;;;10482843;28;20052;-76
2022/02/16 08:15:27;;;;;;;0.40;0.40;;;;;;;;;;10480624;28;20051;-75
2022/02/16 08:20:30;;;;;;;0.93;0.70;;;;;;;;;;10480640;28;20040;-75
2022/02/16 08:25:35;;;;;;;2.17;0.60;;;;;;;;;;10503283;28;21006;-75
2022/02/16 08:30:38;;;;;;;0.63;0.60;;;;;;;;;;10498015;28;20051;-76
2022/02/16 08:35:41;;;;;;;1.77;0.88;;;;;;;;;;10477994;28;20032;-77
2022/02/16 08:40:45;;;;;;;0.65;0.55;;;;;;;;;;10498196;28;20028;-75
2022/02/16 08:46:00;;;;;;;2.28;1.13;;;;;;;;;;10475347;28;20361;-74
2022/02/16 08:51:03;;;;;;;3.83;0.80;;;;;;;;;;10481270;28;20450;-76
2022/02/16 08:56:08;;;;;;;1.00;0.70;;;;;;;;;;10460520;28;20537;-75
2022/02/16 09:01:11;;;;;;;2.00;0.52;;;;;;;;;;10487585;28;20545;-75
2022/02/16 09:06:14;;;;;;;1.58;0.75;;;;;;;;;;10498122;28;20063;-76
2022/02/16 09:11:21;;;;;;;1.15;0.82;;;;;;;;;;10481979;28;20148;-75
2022/02/16 09:16:24;;;;;;;0.95;0.88;;;;;;;;;;10498261;28;21902;-75
2022/02/16 09:21:32;;;;;;;1.48;0.60;;;;;;;;;;10490611;28;20052;-76
2022/02/16 09:26:37;;;;;;;0.65;0.32;;;;;;;;;;10493968;28;20052;-77
2022/02/16 09:31:39;;;;;;;;;;;;;;;;;;10476200;28;20039;-74
2022/02/16 09:36:42;;;;;;;2.70;0.82;;;;;;;;;;10459073;28;19924;-76
2022/02/16 09:41:47;;;;;;;2.72;0.98;;;;;;;;;;10480255;28;20162;-76
2022/02/16 09:46:49;;;;;;;0.93;0.47;;;;;;;;;;10472542;28;20048;-76
2022/02/16 09:51:53;;;;;;;2.40;0.50;;;;;;;;;;10497643;28;20032;-75
2022/02/16 09:56:57;;;;;;;1.77;0.63;;;;;;;;;;10475567;28;20056;-75
2022/02/16 10:02:01;;;;;;;0.47;0.47;;;;;;;;;;10471768;28;20097;-77
2022/02/16 10:07:20;;;;;;;1.02;0.57;;;;;;;;;;10471544;28;20041;-76
2022/02/16 10:12:32;;;;;;;0.82;0.50;;;;;;;;;;10490792;28;20032;-76
2022/02/16 10:17:35;;;;;;;1.58;0.85;;;;;;;;;;10497340;28;20047;-75
2022/02/16 10:22:41;;;;;;;0.28;0.28;;;;;;;;;;10482637;28;20142;-75
2022/02/16 10:27:59;;;;;;;7.28;0.80;;;;;;;;;;10475139;28;20036;-76
2022/02/16 10:33:19;;;;;;;0.43;0.28;;;;;;;;;;10480216;28;20048;-75
2022/02/16 10:38:22;;;;;;;1.52;0.80;;;;;;;;;;10498814;28;20036;-75
2022/02/16 10:43:30;;;;;;;0.82;0.70;;;;;;;;;;10491094;28;20041;-74
2022/02/16 10:48:35;;;;;;;1.13;0.32;;;;;;;;;;10502897;28;20503;-76
2022/02/16 10:53:38;;;;;;;0.43;0.20;;;;;;;;;;10502224;28;20193;-75
2022/02/16 10:58:41;;;;;;;1.65;0.50;;;;;;;;;;10497353;28;20058;-75
2022/02/16 11:03:47;;;;;;;0.98;0.50;;;;;;;;;;10500116;28;20040;-77
2022/02/16 11:08:54;;;;;;;0.30;0.20;;;;;;;;;;10492053;28;20079;-76
2022/02/16 11:14:03;;;;;;;0.38;0.38;;;;;;;;;;10501633;28;21394;-75
2022/02/16 11:19:21;;;;;;;0.35;0.30;;;;;;;;;;10500975;28;20033;-75
2022/02/16 11:24:28;;;;;;;0.40;0.20;;;;;;;;;;10486668;28;20179;-77
2022/02/16 11:29:38;;;;;;;1.55;0.35;;;;;;;;;;10479126;28;20048;-77
2022/02/16 11:34:43;;;;;;;0.52;0.30;;;;;;;;;;10484440;28;20761;-75
2022/02/16 11:40:02;;;;;;;0.65;0.40;;;;;;;;;;10473443;28;20040;-76
2022/02/16 11:45:06;;;;;;;0.90;0.38;;;;;;;;;;10479230;28;20645;-76
2022/02/16 11:50:29;;;;;;;1.50;0.80;;;;;;;;;;10494739;28;20047;-73
2022/02/16 11:55:34;;;;;;;1.27;0.50;;;;;;;;;;10447773;28;20053;-74
2022/02/16 12:00:37;;;;;;;1.77;0.35;;;;;;;;;;10484179;28;20063;-77
2022/02/16 12:05:41;;;;;;;4.28;0.52;;;;;;;;;;10484775;28;20132;-76
2022/02/16 12:10:46;;;;;;;0.20;0.20;;;;;;;;;;10495864;28;20074;-77
2022/02/16 12:15:49;;;;;;;0.82;0.52;;;;;;;;;;10481645;28;20047;-77
2022/02/16 12:20:52;;;;;;;0.40;0.40;;;;;;;;;;10504448;28;20094;-75
2022/02/16 12:26:03;;;;;;;0.80;0.20;;;;;;;;;;10482356;28;20099;-77
2022/02/16 12:31:11;;;;;;;0.70;0.40;;;;;;;;;;10485468;28;20040;-77
2022/02/16 12:36:17;;;;;;;0.88;0.38;;;;;;;;;;10479003;28;20050;-76
2022/02/16 12:41:22;;;;;;;1.33;0.57;;;;;;;;;;10478045;28;20086;-77
2022/02/16 12:46:27;;;;;;;1.50;0.77;;;;;;;;;;10483606;28;20040;-77
2022/02/16 12:51:31;;;;;;;2.55;0.50;;;;;;;;;;10489199;28;20049;-77
2022/02/16 12:56:33;;;;;;;;;;;;;;;;;;10508789;28;20040;-77
2022/02/16 13:01:41;;;;;;;2.47;0.55;;;;;;;;;;10493321;28;19916;-76
2022/02/16 13:06:50;;;;;;;0.75;0.38;;;;;;;;;;10482622;28;20494;-77
2022/02/16 13:11:54;;;;;;;0.57;0.20;;;;;;;;;;10506253;28;20028;-77
2022/02/16 13:17:02;;;;;;;0.35;0.30;;;;;;;;;;10479368;28;20044;-76
2022/02/16 13:22:07;;;;;;;0.20;0.20;;;;;;;;;;10475166;28;20412;-77
2022/02/16 13:27:10;;;;;;;0.57;0.40;;;;;;;;;;10482086;28;20048;-77
2022/02/16 13:32:28;;;;;;;0.22;0.10;;;;;;;;;;10493494;28;20063;-76
2022/02/16 13:37:53;;;;;;;0.10;0.10;;;;;;;;;;10488852;28;20043;-76
2022/02/16 13:42:57;;;;;;;0.20;0.20;;;;;;;;;;10515593;28;20446;-76
2022/02/16 13:48:00;;;;;;;2.88;0.32;;;;;;;;;;10495190;28;20558;-77
2022/02/16 13:53:06;;;;;;;2.40;1.35;;;;;;;;;;10520140;28;20358;-76
2022/02/16 13:58:09;;;;;;;0.38;0.38;;;;;;;;;;10500013;28;20502;-77
2022/02/16 14:03:33;;;;;;;0.15;0.10;;;;;;;;;;10502450;28;21890;-77
2022/02/16 14:08:38;;;;;;;0.47;0.30;;;;;;;;;;10522180;28;20040;-77
2022/02/16 14:13:41;;;;;;;0.52;0.30;;;;;;;;;;10494854;28;20562;-78
2022/02/16 14:19:22;;;;;;;0.95;0.32;;;;;;;;;;10501012;28;20155;-77
2022/02/16 14:24:10;;;;;;;0.25;0.20;;;;;;;;;;10514956;28;20047;-77
2022/02/16 14:29:13;;;;;;;0.60;0.40;;;;;;;;;;10514199;28;20562;-77
2022/02/16 14:34:17;;;;;;;0.28;0.22;;;;;;;;;;10517112;28;20044;-78
2022/02/16 14:39:21;;;;;;;0.20;0.13;;;;;;;;;;10496463;28;20070;-76
2022/02/16 14:44:24;;;;;;;0.15;0.15;;;;;;;;;;10495768;28;20129;-78
2022/02/16 14:49:28;;;;;;;1.00;0.30;;;;;;;;;;10484026;28;20044;-79
2022/02/16 14:54:33;;;;;;;0.10;0.10;;;;;;;;;;10481375;28;20055;-77
2022/02/16 14:59:39;;;;;;;0.40;0.40;;;;;;;;;;10511965;28;20107;-77
2022/02/16 15:04:42;;;;;;;0.40;0.40;;;;;;;;;;10518386;28;20071;-75
2022/02/16 15:09:48;;;;;;;0.30;0.30;;;;;;;;;;10492190;28;20140;-77
2022/02/16 15:14:52;;;;;;;0.22;0.20;;;;;;;;;;10503873;28;20151;-76
2022/02/16 15:19:55;;;;;;;0.20;0.20;;;;;;;;;;10507181;28;20049;-75
2022/02/16 15:25:01;;;;;;;0.60;0.43;;;;;;;;;;10491738;28;20052;-75
2022/02/16 15:30:25;;;;;;;0.30;0.30;;;;;;;;;;10507794;28;20515;-76
2022/02/16 15:35:28;;;;;;;0.20;0.20;;;;;;;;;;10485262;28;20492;-75
2022/02/16 15:40:32;;;;;;;0.50;0.40;;;;;;;;;;10487205;28;20538;-76
2022/02/16 15:45:35;;;;;;;0.50;0.20;;;;;;;;;;10509907;28;20147;-76
2022/02/16 15:50:39;;;;;;;0.20;0.20;;;;;;;;;;10496516;28;20060;-75
2022/02/16 15:55:44;;;;;;;0.90;0.30;;;;;;;;;;10472078;28;20118;-75
2022/02/16 16:00:47;;;;;;;0.08;0.08;;;;;;;;;;10473240;28;20912;-76
2022/02/16 16:05:50;;;;;;;0.43;0.20;;;;;;;;;;10484127;28;20036;-77
2022/02/16 16:10:56;;;;;;;0.80;0.37;;;;;;;;;;10507688;28;20036;-77
2022/02/16 16:16:01;;;;;;;0.25;0.25;;;;;;;;;;10493973;28;20032;-73
2022/02/16 16:21:04;;;;;;;0.10;0.10;;;;;;;;;;10507016;28;20160;-77
2022/02/16 16:26:09;;;;;;;0.60;0.30;;;;;;;;;;10504684;28;20042;-76
2022/02/16 16:31:12;;;;;;;0.55;0.30;;;;;;;;;;10504988;28;20127;-77
2022/02/16 16:36:15;;;;;;;0.32;0.30;;;;;;;;;;10501116;28;20039;-77
2022/02/16 16:41:19;;;;;;;1.00;0.20;;;;;;;;;;10486334;28;20044;-77
2022/02/16 16:46:22;;;;;;;0.82;0.35;;;;;;;;;;10484301;28;20045;-77
2022/02/16 16:51:26;;;;;;;0.05;0.00;;;;;;;;;;10505097;28;20063;-77
2022/02/16 16:56:31;;;;;;;0.28;0.28;;;;;;;;;;10504609;28;20040;-76
2022/02/16 17:01:35;;;;;;;0.30;0.10;;;;;;;;;;10496635;28;20073;-76
2022/02/16 17:06:40;;;;;;;0.30;0.30;;;;;;;;;;10494056;28;20040;-76
2022/02/16 17:11:45;;;;;;;0.98;0.43;;;;;;;;;;10498634;28;20530;-77
2022/02/16 17:16:49;;;;;;;0.28;0.28;;;;;;;;;;10482910;28;20119;-77
2022/02/16 17:21:52;;;;;;;0.50;0.32;;;;;;;;;;10469740;28;20640;-74
2022/02/16 17:26:56;;;;;;;0.82;0.40;;;;;;;;;;10446399;28;20651;-76
2022/02/16 17:31:59;;;;;;;0.20;0.20;;;;;;;;;;10477698;28;20089;-77
2022/02/16 17:37:02;;;;;;;0.40;0.32;;;;;;;;;;10480286;28;20040;-76
2022/02/16 17:42:07;;;;;;;0.85;0.50;;;;;;;;;;10500038;28;20040;-75
2022/02/16 17:47:10;;;;;;;2.35;1.05;;;;;;;;;;10493305;28;20114;-76
2022/02/16 17:52:14;;;;;;;0.10;0.10;;;;;;;;;;10484170;28;20060;-74
2022/02/16 17:57:19;;;;;;;0.30;0.30;;;;;;;;;;10461138;28;20041;-77
2022/02/16 18:02:22;;;;;;;0.30;0.10;;;;;;;;;;10473000;28;20033;-77
2022/02/16 18:07:25;;;;;;;2.33;0.60;;;;;;;;;;10515358;28;20047;-80
2022/02/16 18:12:29;;;;;;;1.17;0.27;;;;;;;;;;10518630;28;20113;-76
2022/02/16 18:17:33;;;;;;;0.88;0.50;;;;;;;;;;10484889;28;20059;-79
2022/02/16 18:22:36;;;;;;;2.63;0.60;;;;;;;;;;10504839;28;20966;-78
2022/02/16 18:27:41;;;;;;;1.05;0.50;;;;;;;;;;10503945;28;20032;-77
2022/02/16 18:32:45;;;;;;;0.40;0.40;;;;;;;;;;10501129;28;20064;-78
2022/02/16 18:37:48;;;;;;;;;;;;;;;;;;10464565;28;20037;-76
2022/02/16 18:42:52;;;;;;;2.40;0.90;;;;;;;;;;10483080;28;19969;-76
2022/02/16 18:47:56;;;;;;;0.60;0.32;;;;;;;;;;10501411;28;20444;-76
2022/02/16 18:53:00;;;;;;;;;;;;;;;;;;10481393;28;20124;-77
2022/02/16 18:58:04;;;;;;;0.38;0.30;;;;;;;;;;10497267;22;20371;-74
2022/02/16 19:03:07;;;;;;;0.30;0.30;;;;;;;;;;10418545;28;20065;-74
2022/02/16 19:08:10;;;;;;;1.20;0.60;;;;;;;;;;10391498;28;20022;-73
2022/02/16 19:13:16;;;;;;;0.57;0.32;;;;;;;;;;10417527;28;20052;-73
2022/02/16 19:18:21;;;;;;;0.93;0.40;;;;;;;;;;10394234;28;20121;-72
2022/02/16 19:23:31;;;;;;;0.93;0.43;;;;;;;;;;10399512;28;20061;-73
2022/02/16 19:28:36;;;;;;;0.50;0.30;;;;;;;;;;10409034;28;20039;-74
2022/02/16 19:33:39;;;;;;;0.40;0.40;;;;;;;;;;10379916;28;20073;-75
2022/02/16 19:38:42;;;;;;;3.88;0.60;;;;;;;;;;10405893;28;20108;-74
2022/02/16 19:43:47;;;;;;;0.35;0.35;;;;;;;;;;10382391;28;20103;-75
2022/02/16 19:48:50;;;;;;;2.38;0.50;;;;;;;;;;10367329;28;20573;-76
2022/02/16 19:53:53;;;;;;;0.47;0.37;;;;;;;;;;10380932;28;20053;-73
2022/02/16 19:58:58;;;;;;;0.20;0.20;;;;;;;;;;10375331;28;20447;-75
2022/02/16 20:04:01;;;;;;;0.30;0.30;;;;;;;;;;10377583;28;20046;-74
2022/02/16 20:09:04;;;;;;;0.50;0.40;;;;;;;;;;10404535;28;20033;-76
2022/02/16 20:14:09;;;;;;;1.38;0.45;;;;;;;;;;10402691;28;20034;-75
2022/02/16 20:19:13;;;;;;;0.98;0.43;;;;;;;;;;10409016;28;20033;-74
2022/02/16 20:24:16;;;;;;;2.53;0.55;;;;;;;;;;10539027;22;20075;-72
2022/02/16 20:29:23;;;;;;;0.55;0.28;;;;;;;;;;10494590;28;20604;-70
2022/02/16 20:34:26;;;;;;;0.20;0.20;;;;;;;;;;10479303;28;20036;-71
2022/02/16 20:39:30;;;;;;;0.93;0.40;;;;;;;;;;10460825;28;20040;-71
2022/02/16 20:44:36;;;;;;;0.40;0.20;;;;;;;;;;10479876;28;20052;-71
2022/02/16 20:49:39;;;;;;;0.30;0.20;;;;;;;;;;10465542;28;20041;-73
2022/02/16 20:54:42;;;;;;;0.43;0.38;;;;;;;;;;10466889;28;20051;-72
2022/02/16 20:59:46;;;;;;;0.73;0.55;;;;;;;;;;10465249;28;20496;-70
2022/02/16 21:04:49;;;;;;;0.20;0.20;;;;;;;;;;10473299;28;20132;-73
2022/02/16 21:09:53;;;;;;;0.20;0.20;;;;;;;;;;10452793;28;20098;-72
2022/02/16 21:14:57;;;;;;;0.80;0.30;;;;;;;;;;10462566;28;20291;-72
2022/02/16 21:20:00;;;;;;;0.20;0.20;;;;;;;;;;10454995;28;20325;-72
2022/02/16 21:25:05;;;;;;;0.38;0.25;;;;;;;;;;10448202;28;20048;-72
2022/02/16 21:30:10;;;;;;;0.20;0.20;;;;;;;;;;10456586;28;20037;-72
2022/02/16 21:35:34;;;;;;;0.10;0.10;;;;;;;;;;10472290;28;20118;-74
2022/02/16 21:40:38;;;;;;;;;;;;;;;;;;10471172;28;20044;-73
2022/02/16 21:46:03;;;;;;;0.20;0.20;;;;;;;;;;10450484;28;20224;-73
2022/02/16 21:51:06;;;;;;;0.30;0.10;;;;;;;;;;10456760;28;20033;-74
2022/02/16 21:56:11;;;;;;;2.30;0.40;;;;;;;;;;10460183;28;20453;-76
2022/02/16 22:01:18;;;;;;;0.20;0.20;;;;;;;;;;10457209;28;20132;-74
2022/02/16 22:06:21;;;;;;;0.63;0.40;;;;;;;;;;10465833;28;20043;-73
2022/02/16 22:11:24;;;;;;;;;;;;;;;;;;10454030;28;20067;-74
2022/02/16 22:16:29;;;;;;;0.20;0.13;;;;;;;;;;10479474;28;19951;-74
2022/02/16 22:21:32;;;;;;;2.55;0.32;;;;;;;;;;10461302;28;20048;-74
2022/02/16 22:26:35;;;;;;;0.30;0.30;;;;;;;;;;10457123;28;20047;-74
2022/02/16 22:31:39;;;;;;;0.32;0.30;;;;;;;;;;10460516;28;20558;-74
2022/02/16 22:36:42;;;;;;;0.20;0.20;;;;;;;;;;10475108;28;20066;-75
2022/02/16 22:41:51;;;;;;;0.20;0.20;;;;;;;;;;10468897;28;20051;-76
2022/02/16 22:46:56;;;;;;;0.20;0.15;;;;;;;;;;10470445;28;20072;-76
2022/02/16 22:52:01;;;;;;;0.70;0.20;;;;;;;;;;10489433;28;20489;-74
2022/02/16 22:57:04;;;;;;;0.20;0.20;;;;;;;;;;10470291;28;20098;-77
2022/02/16 23:18:20;;;;;;;0.35;0.30;;;;;;;;;;10381548;28;20044;-75
2022/02/16 23:23:24;;;;;;;0.20;0.20;;;;;;;;;;10458223;28;20075;-73
2022/02/16 23:28:27;;;;;;;0.03;0.03;;;;;;;;;;10481281;28;20037;-73
2022/02/16 23:33:32;;;;;;;0.15;0.10;;;;;;;;;;10472091;28;20053;-74
2022/02/16 23:38:36;;;;;;;0.30;0.10;;;;;;;;;;10463438;28;20044;-72
2022/02/16 23:43:42;;;;;;;0.45;0.10;;;;;;;;;;10470343;28;20518;-74
2022/02/16 23:48:47;;;;;;;0.20;0.10;;;;;;;;;;10448871;28;20093;-73
2022/02/16 23:53:50;;;;;;;0.50;0.10;;;;;;;;;;10446632;28;20094;-74
2022/02/16 23:58:54;;;;;;;0.20;0.17;;;;;;;;;;10471054;28;20045;-74
